createdAt,value
2017-04-10T00:00:19.972Z,1010.74
2017-04-10T00:00:46.129Z,1010.75
2017-04-10T00:01:12.239Z,1010.75
2017-04-10T00:01:38.345Z,1010.73
2017-04-10T00:02:04.428Z,1010.77
2017-04-10T00:02:30.510Z,1010.73
2017-04-10T00:02:56.639Z,1010.74
2017-04-10T00:03:22.722Z,1010.71
2017-04-10T00:03:48.853Z,1010.72
2017-04-10T00:04:14.935Z,1010.76
2017-04-10T00:04:41.020Z,1010.72
2017-04-10T00:05:07.128Z,1010.73
2017-04-10T00:05:33.212Z,1010.71
2017-04-10T00:05:59.369Z,1010.7
2017-04-10T00:06:25.497Z,1010.72
2017-04-10T00:06:51.581Z,1010.72
2017-04-10T00:07:17.691Z,1010.72
2017-04-10T00:07:43.821Z,1010.69
2017-04-10T00:08:09.928Z,1010.68
2017-04-10T00:08:36.016Z,1010.67
2017-04-10T00:09:02.148Z,1010.68
2017-04-10T00:09:28.281Z,1010.75
2017-04-10T00:09:54.368Z,1010.71
2017-04-10T00:10:20.480Z,1010.7
2017-04-10T00:10:46.560Z,1010.71
2017-04-10T00:11:12.644Z,1010.69
2017-04-10T00:11:38.725Z,1010.68
2017-04-10T00:12:04.809Z,1010.69
2017-04-10T00:12:30.891Z,1010.67
2017-04-10T00:12:56.973Z,1010.66
2017-04-10T00:13:23.055Z,1010.69
2017-04-10T00:13:49.140Z,1010.67
2017-04-10T00:14:15.223Z,1010.65
2017-04-10T00:14:41.308Z,1010.66
2017-04-10T00:15:07.412Z,1010.68
2017-04-10T00:15:33.494Z,1010.66
2017-04-10T00:15:59.579Z,1010.65
2017-04-10T00:16:25.663Z,1010.62
2017-04-10T00:16:51.746Z,1010.6
2017-04-10T00:17:17.830Z,1010.58
2017-04-10T00:17:43.937Z,1010.61
2017-04-10T00:18:10.023Z,1010.61
2017-04-10T00:18:36.108Z,1010.63
2017-04-10T00:19:02.191Z,1010.58
2017-04-10T00:19:28.297Z,1010.59
2017-04-10T00:19:54.404Z,1010.58
2017-04-10T00:20:20.538Z,1010.6
2017-04-10T00:20:46.670Z,1010.56
2017-04-10T00:21:12.776Z,1010.59
2017-04-10T00:21:38.883Z,1010.58
2017-04-10T00:22:04.966Z,1010.53
2017-04-10T00:22:31.073Z,1010.55
2017-04-10T00:22:57.205Z,1010.5
2017-04-10T00:23:23.378Z,1010.52
2017-04-10T00:23:49.505Z,1010.51
2017-04-10T00:24:15.612Z,1010.54
2017-04-10T00:24:41.740Z,1010.55
2017-04-10T00:25:07.845Z,1010.49
2017-04-10T00:25:33.931Z,1010.52
2017-04-10T00:26:00.060Z,1010.51
2017-04-10T00:26:26.143Z,1010.5
2017-04-10T00:26:52.271Z,1010.51
2017-04-10T00:27:18.351Z,1010.46
2017-04-10T00:27:44.436Z,1010.45
2017-04-10T00:28:10.544Z,1010.46
2017-04-10T00:28:36.676Z,1010.49
2017-04-10T00:29:02.759Z,1010.51
2017-04-10T00:29:28.888Z,1010.52
2017-04-10T00:29:54.995Z,1010.48
2017-04-10T00:30:21.102Z,1010.47
2017-04-10T00:30:47.185Z,1010.46
2017-04-10T00:31:13.344Z,1010.5
2017-04-10T00:31:39.473Z,1010.52
2017-04-10T00:32:05.605Z,1010.51
2017-04-10T00:32:31.710Z,1010.49
2017-04-10T00:32:57.818Z,1010.49
2017-04-10T00:33:23.972Z,1010.49
2017-04-10T00:33:50.081Z,1010.5
2017-04-10T00:34:16.212Z,1010.51
2017-04-10T00:34:42.320Z,1010.48
2017-04-10T00:35:08.453Z,1010.52
2017-04-10T00:35:34.538Z,1010.45
2017-04-10T00:36:00.646Z,1010.48
2017-04-10T00:36:26.753Z,1010.47
2017-04-10T00:36:52.862Z,1010.47
2017-04-10T00:37:18.997Z,1010.47
2017-04-10T00:37:45.079Z,1010.5
2017-04-10T00:38:11.185Z,1010.51
2017-04-10T00:38:37.366Z,1010.54
2017-04-10T00:39:03.523Z,1010.5
2017-04-10T00:39:29.607Z,1010.5
2017-04-10T00:39:55.792Z,1010.47
2017-04-10T00:40:21.899Z,1010.46
2017-04-10T00:40:48.007Z,1010.48
2017-04-10T00:41:14.091Z,1010.44
2017-04-10T00:41:40.222Z,1010.46
2017-04-10T00:42:06.310Z,1010.45
2017-04-10T00:42:32.410Z,1010.43
2017-04-10T00:42:58.539Z,1010.45
2017-04-10T00:43:24.643Z,1010.46
2017-04-10T00:43:50.797Z,1010.46
2017-04-10T00:44:16.903Z,1010.43
2017-04-10T00:44:43.059Z,1010.42
2017-04-10T00:45:09.143Z,1010.42
2017-04-10T00:45:35.252Z,1010.41
2017-04-10T00:46:01.337Z,1010.41
2017-04-10T00:46:27.446Z,1010.42
2017-04-10T00:46:53.553Z,1010.43
2017-04-10T00:47:19.636Z,1010.43
2017-04-10T00:47:45.740Z,1010.39
2017-04-10T00:48:11.847Z,1010.38
2017-04-10T00:48:37.980Z,1010.38
2017-04-10T00:49:04.110Z,1010.36
2017-04-10T00:49:30.218Z,1010.37
2017-04-10T00:49:56.328Z,1010.35
2017-04-10T00:50:22.455Z,1010.33
2017-04-10T00:50:48.540Z,1010.37
2017-04-10T00:51:14.644Z,1010.32
2017-04-10T00:51:40.749Z,1010.31
2017-04-10T00:52:06.900Z,1010.3
2017-04-10T00:52:33.008Z,1010.31
2017-04-10T00:52:59.093Z,1010.35
2017-04-10T00:53:25.374Z,1010.29
2017-04-10T00:53:51.561Z,1010.32
2017-04-10T00:54:17.659Z,1010.29
2017-04-10T00:54:43.809Z,1010.29
2017-04-10T00:55:09.917Z,1010.31
2017-04-10T00:55:35.998Z,1010.3
2017-04-10T00:56:02.080Z,1010.29
2017-04-10T00:56:28.163Z,1010.26
2017-04-10T00:56:54.247Z,1010.27
2017-04-10T00:57:20.353Z,1010.27
2017-04-10T00:57:46.436Z,1010.27
2017-04-10T00:58:12.515Z,1010.29
2017-04-10T00:58:38.647Z,1010.29
2017-04-10T00:59:04.778Z,1010.22
2017-04-10T00:59:30.886Z,1010.21
2017-04-10T00:59:56.973Z,1010.27
2017-04-10T01:00:23.057Z,1010.24
2017-04-10T01:00:49.139Z,1010.27
2017-04-10T01:01:15.242Z,1010.24
2017-04-10T01:01:41.353Z,1010.22
2017-04-10T01:02:07.436Z,1010.21
2017-04-10T01:02:33.523Z,1010.19
2017-04-10T01:02:59.654Z,1010.18
2017-04-10T01:03:25.807Z,1010.2
2017-04-10T01:03:51.914Z,1010.19
2017-04-10T01:04:18.018Z,1010.21
2017-04-10T01:04:44.274Z,1010.15
2017-04-10T01:05:10.378Z,1010.13
2017-04-10T01:05:36.561Z,1010.15
2017-04-10T01:06:02.666Z,1010.13
2017-04-10T01:06:28.748Z,1010.12
2017-04-10T01:06:54.833Z,1010.12
2017-04-10T01:07:21.011Z,1010.14
2017-04-10T01:07:47.166Z,1010.15
2017-04-10T01:08:13.294Z,1010.16
2017-04-10T01:08:39.400Z,1010.16
2017-04-10T01:09:05.484Z,1010.17
2017-04-10T01:09:31.611Z,1010.15
2017-04-10T01:09:57.718Z,1010.12
2017-04-10T01:10:23.819Z,1010.13
2017-04-10T01:10:49.924Z,1010.15
2017-04-10T01:11:16.009Z,1010.12
2017-04-10T01:11:42.093Z,1010.14
2017-04-10T01:12:08.197Z,1010.1
2017-04-10T01:12:34.301Z,1010.18
2017-04-10T01:13:00.409Z,1010.12
2017-04-10T01:13:26.539Z,1010.1
2017-04-10T01:13:52.649Z,1010.13
2017-04-10T01:14:18.801Z,1010.1
2017-04-10T01:14:44.886Z,1010.11
2017-04-10T01:15:11.036Z,1010.11
2017-04-10T01:15:37.120Z,1010.13
2017-04-10T01:16:03.201Z,1010.11
2017-04-10T01:16:29.285Z,1010.13
2017-04-10T01:16:56.720Z,1010.09
2017-04-10T01:17:23.479Z,1010.09
2017-04-10T01:17:49.877Z,1010.1
2017-04-10T01:18:15.967Z,1010.09
2017-04-10T01:18:42.097Z,1010.09
2017-04-10T01:19:08.206Z,1010.1
2017-04-10T01:19:34.338Z,1010.05
2017-04-10T01:20:00.849Z,1010.06
2017-04-10T01:20:26.935Z,1010.07
2017-04-10T01:20:53.021Z,1010.06
2017-04-10T01:21:19.129Z,1010.03
2017-04-10T01:21:45.238Z,1010.03
2017-04-10T01:22:11.319Z,1010.04
2017-04-10T01:22:37.422Z,1009.98
2017-04-10T01:23:03.510Z,1009.97
2017-04-10T01:23:29.737Z,1009.99
2017-04-10T01:23:55.818Z,1010.01
2017-04-10T01:24:21.902Z,1009.99
2017-04-10T01:24:48.010Z,1010.02
2017-04-10T01:25:14.095Z,1009.99
2017-04-10T01:25:40.203Z,1009.96
2017-04-10T01:26:06.285Z,1010.01
2017-04-10T01:26:32.370Z,1009.99
2017-04-10T01:26:58.451Z,1010
2017-04-10T01:27:24.557Z,1009.99
2017-04-10T01:27:50.642Z,1009.94
2017-04-10T01:28:16.748Z,1009.93
2017-04-10T01:28:42.828Z,1009.94
2017-04-10T01:29:08.912Z,1009.94
2017-04-10T01:29:34.999Z,1010
2017-04-10T01:30:01.082Z,1009.97
2017-04-10T01:30:27.212Z,1009.96
2017-04-10T01:30:53.341Z,1009.95
2017-04-10T01:31:19.425Z,1009.97
2017-04-10T01:31:45.529Z,1009.95
2017-04-10T01:32:11.639Z,1009.97
2017-04-10T01:32:37.720Z,1009.94
2017-04-10T01:33:03.853Z,1009.98
2017-04-10T01:33:29.936Z,1009.98
2017-04-10T01:33:56.061Z,1009.93
2017-04-10T01:34:22.168Z,1009.91
2017-04-10T01:34:48.272Z,1009.95
2017-04-10T01:35:14.378Z,1009.92
2017-04-10T01:35:40.485Z,1009.92
2017-04-10T01:36:06.567Z,1009.94
2017-04-10T01:36:32.672Z,1009.9
2017-04-10T01:36:58.754Z,1009.86
2017-04-10T01:37:24.862Z,1009.86
2017-04-10T01:37:50.969Z,1009.91
2017-04-10T01:38:17.077Z,1009.87
2017-04-10T01:38:43.252Z,1009.92
2017-04-10T01:39:09.382Z,1009.87
2017-04-10T01:39:35.466Z,1009.87
2017-04-10T01:40:01.576Z,1009.87
2017-04-10T01:40:27.657Z,1009.85
2017-04-10T01:40:53.741Z,1009.82
2017-04-10T01:41:19.823Z,1009.85
2017-04-10T01:41:45.906Z,1009.82
2017-04-10T01:42:11.990Z,1009.8
2017-04-10T01:42:38.072Z,1009.8
2017-04-10T01:43:04.157Z,1009.78
2017-04-10T01:43:30.242Z,1009.76
2017-04-10T01:43:56.329Z,1009.78
2017-04-10T01:44:22.412Z,1009.77
2017-04-10T01:44:48.493Z,1009.78
2017-04-10T01:45:14.576Z,1009.79
2017-04-10T01:45:40.659Z,1009.76
2017-04-10T01:46:06.788Z,1009.76
2017-04-10T01:46:32.871Z,1009.74
2017-04-10T01:46:58.955Z,1009.76
2017-04-10T01:47:25.048Z,1009.78
2017-04-10T01:47:51.129Z,1009.76
2017-04-10T01:48:17.364Z,1009.76
2017-04-10T01:48:43.444Z,1009.73
2017-04-10T01:49:09.526Z,1009.72
2017-04-10T01:49:35.609Z,1009.76
2017-04-10T01:50:01.694Z,1009.76
2017-04-10T01:50:27.798Z,1009.74
2017-04-10T01:50:54.063Z,1009.73
2017-04-10T01:51:20.144Z,1009.77
2017-04-10T01:51:46.229Z,1009.71
2017-04-10T01:52:12.312Z,1009.72
2017-04-10T01:52:38.395Z,1009.75
2017-04-10T01:53:04.477Z,1009.75
2017-04-10T01:53:30.560Z,1009.74
2017-04-10T01:53:56.642Z,1009.72
2017-04-10T01:54:22.747Z,1009.74
2017-04-10T01:54:48.858Z,1009.72
2017-04-10T01:55:14.940Z,1009.71
2017-04-10T01:55:41.019Z,1009.7
2017-04-10T01:56:07.104Z,1009.72
2017-04-10T01:56:33.211Z,1009.75
2017-04-10T01:56:59.316Z,1009.73
2017-04-10T01:57:25.401Z,1009.76
2017-04-10T01:57:51.486Z,1009.75
2017-04-10T01:58:17.594Z,1009.74
2017-04-10T01:58:43.675Z,1009.71
2017-04-10T01:59:09.757Z,1009.75
2017-04-10T01:59:35.864Z,1009.74
2017-04-10T02:00:01.947Z,1009.72
2017-04-10T02:00:28.026Z,1009.71
2017-04-10T02:00:54.109Z,1009.72
2017-04-10T02:01:20.201Z,1009.73
2017-04-10T02:01:46.283Z,1009.76
2017-04-10T02:02:12.366Z,1009.74
2017-04-10T02:02:38.472Z,1009.75
2017-04-10T02:03:04.587Z,1009.74
2017-04-10T02:03:30.638Z,1009.76
2017-04-10T02:03:56.747Z,1009.7
2017-04-10T02:04:22.852Z,1009.7
2017-04-10T02:04:48.935Z,1009.7
2017-04-10T02:05:15.019Z,1009.7
2017-04-10T02:05:41.102Z,1009.7
2017-04-10T02:06:07.184Z,1009.68
2017-04-10T02:06:33.266Z,1009.7
2017-04-10T02:06:59.401Z,1009.69
2017-04-10T02:07:25.483Z,1009.7
2017-04-10T02:07:51.563Z,1009.65
2017-04-10T02:08:17.647Z,1009.67
2017-04-10T02:08:43.730Z,1009.67
2017-04-10T02:09:09.839Z,1009.64
2017-04-10T02:09:35.944Z,1009.65
2017-04-10T02:10:02.029Z,1009.68
2017-04-10T02:10:28.110Z,1009.63
2017-04-10T02:10:54.238Z,1009.64
2017-04-10T02:11:20.321Z,1009.62
2017-04-10T02:11:46.403Z,1009.61
2017-04-10T02:12:12.537Z,1009.62
2017-04-10T02:12:38.670Z,1009.6
2017-04-10T02:13:04.785Z,1009.57
2017-04-10T02:13:30.884Z,1009.55
2017-04-10T02:13:56.993Z,1009.55
2017-04-10T02:14:23.097Z,1009.56
2017-04-10T02:14:49.204Z,1009.55
2017-04-10T02:15:15.284Z,1009.5
2017-04-10T02:15:41.388Z,1009.52
2017-04-10T02:16:07.470Z,1009.52
2017-04-10T02:16:33.571Z,1009.47
2017-04-10T02:16:59.655Z,1009.49
2017-04-10T02:17:25.759Z,1009.44
2017-04-10T02:17:51.890Z,1009.45
2017-04-10T02:18:17.976Z,1009.49
2017-04-10T02:18:44.108Z,1009.48
2017-04-10T02:19:10.192Z,1009.4
2017-04-10T02:19:36.320Z,1009.4
2017-04-10T02:20:02.575Z,1009.43
2017-04-10T02:20:28.657Z,1009.49
2017-04-10T02:20:54.743Z,1009.47
2017-04-10T02:21:20.850Z,1009.48
2017-04-10T02:21:47.034Z,1009.48
2017-04-10T02:22:13.114Z,1009.48
2017-04-10T02:22:39.222Z,1009.5
2017-04-10T02:23:05.326Z,1009.5
2017-04-10T02:23:31.410Z,1009.45
2017-04-10T02:23:57.585Z,1009.52
2017-04-10T02:24:23.670Z,1009.52
2017-04-10T02:24:49.775Z,1009.52
2017-04-10T02:25:15.879Z,1009.48
2017-04-10T02:25:41.965Z,1009.51
2017-04-10T02:26:08.098Z,1009.56
2017-04-10T02:26:34.204Z,1009.53
2017-04-10T02:27:00.288Z,1009.54
2017-04-10T02:27:26.397Z,1009.52
2017-04-10T02:27:52.524Z,1009.5
2017-04-10T02:28:18.630Z,1009.48
2017-04-10T02:28:44.734Z,1009.5
2017-04-10T02:29:10.840Z,1009.48
2017-04-10T02:29:36.948Z,1009.48
2017-04-10T02:30:03.055Z,1009.43
2017-04-10T02:30:29.160Z,1009.39
2017-04-10T02:30:55.265Z,1009.39
2017-04-10T02:31:21.346Z,1009.34
2017-04-10T02:31:47.451Z,1009.27
2017-04-10T02:32:13.557Z,1009.31
2017-04-10T02:32:39.641Z,1009.29
2017-04-10T02:33:05.746Z,1009.3
2017-04-10T02:33:31.824Z,1009.25
2017-04-10T02:33:57.932Z,1009.26
2017-04-10T02:34:24.036Z,1009.23
2017-04-10T02:34:50.142Z,1009.24
2017-04-10T02:35:16.248Z,1009.21
2017-04-10T02:35:42.354Z,1009.23
2017-04-10T02:36:08.462Z,1009.2
2017-04-10T02:36:34.546Z,1009.27
2017-04-10T02:37:00.652Z,1009.18
2017-04-10T02:37:26.759Z,1009.22
2017-04-10T02:37:52.862Z,1009.23
2017-04-10T02:38:18.981Z,1009.18
2017-04-10T02:38:45.049Z,1009.24
2017-04-10T02:39:11.129Z,1009.23
2017-04-10T02:39:37.212Z,1009.22
2017-04-10T02:40:03.343Z,1009.23
2017-04-10T02:40:29.447Z,1009.2
2017-04-10T02:40:55.528Z,1009.23
2017-04-10T02:41:21.632Z,1009.23
2017-04-10T02:41:47.714Z,1009.25
2017-04-10T02:42:13.819Z,1009.27
2017-04-10T02:42:39.922Z,1009.24
2017-04-10T02:43:06.030Z,1009.19
2017-04-10T02:43:32.113Z,1009.25
2017-04-10T02:43:58.263Z,1009.3
2017-04-10T02:44:24.417Z,1009.26
2017-04-10T02:44:50.520Z,1009.27
2017-04-10T02:45:16.602Z,1009.26
2017-04-10T02:45:42.709Z,1009.24
2017-04-10T02:46:08.793Z,1009.28
2017-04-10T02:46:34.922Z,1009.22
2017-04-10T02:47:01.004Z,1009.2
2017-04-10T02:47:27.087Z,1009.22
2017-04-10T02:47:53.218Z,1009.19
2017-04-10T02:48:19.347Z,1009.23
2017-04-10T02:48:45.433Z,1009.26
2017-04-10T02:49:11.561Z,1009.12
2017-04-10T02:49:37.666Z,1009.22
2017-04-10T02:50:03.774Z,1009.24
2017-04-10T02:50:29.857Z,1009.22
2017-04-10T02:50:55.937Z,1009.26
2017-04-10T02:51:22.027Z,1009.21
2017-04-10T02:51:48.129Z,1009.24
2017-04-10T02:52:14.216Z,1009.22
2017-04-10T02:52:40.296Z,1009.24
2017-04-10T02:53:06.376Z,1009.19
2017-04-10T02:53:32.484Z,1009.23
2017-04-10T02:53:58.569Z,1009.2
2017-04-10T02:54:24.654Z,1009.22
2017-04-10T02:54:50.786Z,1009.18
2017-04-10T02:55:16.866Z,1009.18
2017-04-10T02:55:42.968Z,1009.18
2017-04-10T02:56:09.053Z,1009.23
2017-04-10T02:56:35.137Z,1009.17
2017-04-10T02:57:01.218Z,1009.17
2017-04-10T02:57:27.298Z,1009.11
2017-04-10T02:57:53.405Z,1009.15
2017-04-10T02:58:19.513Z,1009.15
2017-04-10T02:58:45.621Z,1009.16
2017-04-10T02:59:11.702Z,1009.14
2017-04-10T02:59:37.786Z,1009.2
2017-04-10T03:00:03.868Z,1009.18
2017-04-10T03:00:29.973Z,1009.18
2017-04-10T03:00:56.081Z,1009.19
2017-04-10T03:01:22.166Z,1009.2
2017-04-10T03:01:48.276Z,1009.2
2017-04-10T03:02:14.359Z,1009.24
2017-04-10T03:02:40.489Z,1009.18
2017-04-10T03:03:06.574Z,1009.18
2017-04-10T03:03:32.679Z,1009.24
2017-04-10T03:03:58.761Z,1009.22
2017-04-10T03:04:24.892Z,1009.22
2017-04-10T03:04:50.999Z,1009.22
2017-04-10T03:05:17.083Z,1009.25
2017-04-10T03:05:43.166Z,1009.21
2017-04-10T03:06:09.248Z,1009.22
2017-04-10T03:06:35.332Z,1009.21
2017-04-10T03:07:01.438Z,1009.25
2017-04-10T03:07:27.522Z,1009.25
2017-04-10T03:07:53.605Z,1009.22
2017-04-10T03:08:19.712Z,1009.23
2017-04-10T03:08:45.865Z,1009.26
2017-04-10T03:09:11.947Z,1009.23
2017-04-10T03:09:38.076Z,1009.26
2017-04-10T03:10:04.207Z,1009.25
2017-04-10T03:10:30.313Z,1009.25
2017-04-10T03:10:56.397Z,1009.27
2017-04-10T03:11:22.505Z,1009.28
2017-04-10T03:11:48.611Z,1009.28
2017-04-10T03:12:14.717Z,1009.29
2017-04-10T03:12:40.822Z,1009.29
2017-04-10T03:13:06.962Z,1009.24
2017-04-10T03:13:33.086Z,1009.27
2017-04-10T03:13:59.365Z,1009.26
2017-04-10T03:14:25.447Z,1009.26
2017-04-10T03:14:51.532Z,1009.25
2017-04-10T03:15:17.636Z,1009.27
2017-04-10T03:15:43.717Z,1009.25
2017-04-10T03:16:09.797Z,1009.21
2017-04-10T03:16:35.879Z,1009.22
2017-04-10T03:17:02.010Z,1009.21
2017-04-10T03:17:28.114Z,1009.21
2017-04-10T03:17:54.194Z,1009.2
2017-04-10T03:18:20.276Z,1009.25
2017-04-10T03:18:46.381Z,1009.26
2017-04-10T03:19:12.487Z,1009.25
2017-04-10T03:19:38.593Z,1009.25
2017-04-10T03:20:04.674Z,1009.25
2017-04-10T03:20:30.778Z,1009.23
2017-04-10T03:20:56.886Z,1009.18
2017-04-10T03:21:22.970Z,1009.2
2017-04-10T03:21:49.078Z,1009.22
2017-04-10T03:22:15.181Z,1009.2
2017-04-10T03:22:41.263Z,1009.25
2017-04-10T03:23:07.347Z,1009.25
2017-04-10T03:23:33.450Z,1009.2
2017-04-10T03:23:59.557Z,1009.27
2017-04-10T03:24:25.698Z,1009.17
2017-04-10T03:24:51.804Z,1009.2
2017-04-10T03:25:17.887Z,1009.21
2017-04-10T03:25:43.991Z,1009.19
2017-04-10T03:26:10.095Z,1009.19
2017-04-10T03:26:36.180Z,1009.16
2017-04-10T03:27:02.265Z,1009.2
2017-04-10T03:27:28.371Z,1009.21
2017-04-10T03:27:54.527Z,1009.15
2017-04-10T03:28:20.657Z,1009.14
2017-04-10T03:28:46.834Z,1009.12
2017-04-10T03:29:12.943Z,1009.16
2017-04-10T03:29:39.048Z,1009.15
2017-04-10T03:30:05.129Z,1009.18
2017-04-10T03:30:31.234Z,1009.2
2017-04-10T03:30:57.316Z,1009.22
2017-04-10T03:31:23.402Z,1009.21
2017-04-10T03:31:49.516Z,1009.16
2017-04-10T03:32:15.642Z,1009.13
2017-04-10T03:32:41.726Z,1009.11
2017-04-10T03:33:07.862Z,1009.1
2017-04-10T03:33:33.964Z,1009.11
2017-04-10T03:34:00.069Z,1009.13
2017-04-10T03:34:26.227Z,1009.13
2017-04-10T03:34:52.308Z,1009.14
2017-04-10T03:35:18.393Z,1009.14
2017-04-10T03:35:44.549Z,1009.11
2017-04-10T03:36:10.656Z,1009.12
2017-04-10T03:36:36.744Z,1009.11
2017-04-10T03:37:02.819Z,1009.13
2017-04-10T03:37:28.901Z,1009.13
2017-04-10T03:37:55.031Z,1009.14
2017-04-10T03:38:21.116Z,1009.16
2017-04-10T03:38:47.244Z,1009.17
2017-04-10T03:39:13.350Z,1009.19
2017-04-10T03:39:39.476Z,1009.13
2017-04-10T03:40:05.583Z,1009.17
2017-04-10T03:40:31.687Z,1009.17
2017-04-10T03:40:57.770Z,1009.21
2017-04-10T03:41:23.851Z,1009.19
2017-04-10T03:41:49.960Z,1009.19
2017-04-10T03:42:16.041Z,1009.17
2017-04-10T03:42:42.125Z,1009.14
2017-04-10T03:43:08.206Z,1009.17
2017-04-10T03:43:34.289Z,1009.21
2017-04-10T03:44:00.373Z,1009.21
2017-04-10T03:44:26.456Z,1009.2
2017-04-10T03:44:52.537Z,1009.23
2017-04-10T03:45:18.618Z,1009.23
2017-04-10T03:45:44.723Z,1009.21
2017-04-10T03:46:10.831Z,1009.19
2017-04-10T03:46:36.917Z,1009.17
2017-04-10T03:47:03.001Z,1009.16
2017-04-10T03:47:29.107Z,1009.18
2017-04-10T03:47:55.234Z,1009.21
2017-04-10T03:48:21.342Z,1009.21
2017-04-10T03:48:47.424Z,1009.21
2017-04-10T03:49:13.509Z,1009.2
2017-04-10T03:49:39.594Z,1009.23
2017-04-10T03:50:05.699Z,1009.22
2017-04-10T03:50:31.781Z,1009.19
2017-04-10T03:50:57.864Z,1009.19
2017-04-10T03:51:23.971Z,1009.2
2017-04-10T03:51:50.055Z,1009.16
2017-04-10T03:52:16.136Z,1009.18
2017-04-10T03:52:42.219Z,1009.18
2017-04-10T03:53:08.304Z,1009.2
2017-04-10T03:53:34.387Z,1009.21
2017-04-10T03:54:00.473Z,1009.23
2017-04-10T03:54:26.553Z,1009.26
2017-04-10T03:54:52.637Z,1009.24
2017-04-10T03:55:18.740Z,1009.28
2017-04-10T03:55:44.827Z,1009.25
2017-04-10T03:56:10.935Z,1009.29
2017-04-10T03:56:37.019Z,1009.29
2017-04-10T03:57:03.104Z,1009.31
2017-04-10T03:57:29.209Z,1009.27
2017-04-10T03:57:55.287Z,1009.26
2017-04-10T03:58:21.372Z,1009.28
2017-04-10T03:58:47.454Z,1009.28
2017-04-10T03:59:13.560Z,1009.22
2017-04-10T03:59:39.663Z,1009.21
2017-04-10T04:00:05.748Z,1009.19
2017-04-10T04:00:31.836Z,1009.17
2017-04-10T04:00:57.943Z,1009.2
2017-04-10T04:01:24.049Z,1009.18
2017-04-10T04:01:50.131Z,1009.22
2017-04-10T04:02:16.237Z,1009.2
2017-04-10T04:02:42.317Z,1009.2
2017-04-10T04:03:08.402Z,1009.23
2017-04-10T04:03:34.484Z,1009.19
2017-04-10T04:04:00.585Z,1009.19
2017-04-10T04:04:26.670Z,1009.22
2017-04-10T04:04:52.753Z,1009.23
2017-04-10T04:05:18.860Z,1009.22
2017-04-10T04:05:44.944Z,1009.2
2017-04-10T04:06:11.025Z,1009.23
2017-04-10T04:06:37.109Z,1009.18
2017-04-10T04:07:03.216Z,1009.17
2017-04-10T04:07:29.297Z,1009.2
2017-04-10T04:07:55.380Z,1009.2
2017-04-10T04:08:21.510Z,1009.22
2017-04-10T04:08:47.612Z,1009.24
2017-04-10T04:09:13.694Z,1009.25
2017-04-10T04:09:39.835Z,1009.28
2017-04-10T04:10:05.883Z,1009.23
2017-04-10T04:10:31.991Z,1009.24
2017-04-10T04:10:58.071Z,1009.25
2017-04-10T04:11:24.230Z,1009.28
2017-04-10T04:11:50.312Z,1009.25
2017-04-10T04:12:16.395Z,1009.27
2017-04-10T04:12:42.479Z,1009.22
2017-04-10T04:13:08.563Z,1009.25
2017-04-10T04:13:34.642Z,1009.26
2017-04-10T04:14:00.750Z,1009.27
2017-04-10T04:14:26.835Z,1009.29
2017-04-10T04:14:52.914Z,1009.27
2017-04-10T04:15:19.019Z,1009.28
2017-04-10T04:15:45.100Z,1009.27
2017-04-10T04:16:11.182Z,1009.24
2017-04-10T04:16:37.267Z,1009.22
2017-04-10T04:17:03.353Z,1009.26
2017-04-10T04:17:29.434Z,1009.23
2017-04-10T04:17:55.540Z,1009.28
2017-04-10T04:18:21.646Z,1009.25
2017-04-10T04:18:47.733Z,1009.28
2017-04-10T04:19:13.838Z,1009.27
2017-04-10T04:19:39.922Z,1009.31
2017-04-10T04:20:06.027Z,1009.33
2017-04-10T04:20:32.131Z,1009.28
2017-04-10T04:20:58.239Z,1009.26
2017-04-10T04:21:24.322Z,1009.28
2017-04-10T04:21:50.406Z,1009.29
2017-04-10T04:22:16.490Z,1009.32
2017-04-10T04:22:42.571Z,1009.33
2017-04-10T04:23:08.678Z,1009.31
2017-04-10T04:23:34.784Z,1009.36
2017-04-10T04:24:01.015Z,1009.39
2017-04-10T04:24:27.100Z,1009.4
2017-04-10T04:24:53.208Z,1009.37
2017-04-10T04:25:19.292Z,1009.37
2017-04-10T04:25:45.373Z,1009.35
2017-04-10T04:26:11.458Z,1009.38
2017-04-10T04:26:37.542Z,1009.37
2017-04-10T04:27:03.625Z,1009.4
2017-04-10T04:27:29.708Z,1009.42
2017-04-10T04:27:55.789Z,1009.45
2017-04-10T04:28:21.873Z,1009.41
2017-04-10T04:28:47.955Z,1009.38
2017-04-10T04:29:14.058Z,1009.38
2017-04-10T04:29:40.243Z,1009.37
2017-04-10T04:30:06.327Z,1009.41
2017-04-10T04:30:32.435Z,1009.39
2017-04-10T04:30:58.540Z,1009.39
2017-04-10T04:31:24.624Z,1009.44
2017-04-10T04:31:50.705Z,1009.41
2017-04-10T04:32:16.791Z,1009.43
2017-04-10T04:32:42.873Z,1009.43
2017-04-10T04:33:08.956Z,1009.39
2017-04-10T04:33:35.058Z,1009.44
2017-04-10T04:34:01.142Z,1009.42
2017-04-10T04:34:27.226Z,1009.43
2017-04-10T04:34:53.329Z,1009.47
2017-04-10T04:35:19.411Z,1009.49
2017-04-10T04:35:45.494Z,1009.5
2017-04-10T04:36:11.577Z,1009.52
2017-04-10T04:36:37.681Z,1009.49
2017-04-10T04:37:03.760Z,1009.49
2017-04-10T04:37:29.846Z,1009.47
2017-04-10T04:37:55.931Z,1009.47
2017-04-10T04:38:22.014Z,1009.46
2017-04-10T04:38:48.097Z,1009.42
2017-04-10T04:39:14.178Z,1009.46
2017-04-10T04:39:40.262Z,1009.46
2017-04-10T04:40:06.388Z,1009.5
2017-04-10T04:40:32.495Z,1009.47
2017-04-10T04:40:58.600Z,1009.49
2017-04-10T04:41:24.681Z,1009.53
2017-04-10T04:41:50.764Z,1009.5
2017-04-10T04:42:16.847Z,1009.53
2017-04-10T04:42:43.028Z,1009.53
2017-04-10T04:43:09.112Z,1009.52
2017-04-10T04:43:35.192Z,1009.54
2017-04-10T04:44:01.273Z,1009.58
2017-04-10T04:44:27.356Z,1009.55
2017-04-10T04:44:53.462Z,1009.57
2017-04-10T04:45:19.565Z,1009.56
2017-04-10T04:45:45.647Z,1009.55
2017-04-10T04:46:11.766Z,1009.58
2017-04-10T04:46:37.817Z,1009.61
2017-04-10T04:47:03.902Z,1009.62
2017-04-10T04:47:29.984Z,1009.6
2017-04-10T04:47:56.069Z,1009.63
2017-04-10T04:48:22.251Z,1009.62
2017-04-10T04:48:48.333Z,1009.65
2017-04-10T04:49:14.414Z,1009.63
2017-04-10T04:49:40.598Z,1009.59
2017-04-10T04:50:06.682Z,1009.66
2017-04-10T04:50:32.764Z,1009.69
2017-04-10T04:50:58.847Z,1009.69
2017-04-10T04:51:24.931Z,1009.67
2017-04-10T04:51:51.015Z,1009.67
2017-04-10T04:52:17.098Z,1009.68
2017-04-10T04:52:43.185Z,1009.71
2017-04-10T04:53:09.265Z,1009.73
2017-04-10T04:53:35.348Z,1009.74
2017-04-10T04:54:01.435Z,1009.74
2017-04-10T04:54:27.517Z,1009.73
2017-04-10T04:54:53.599Z,1009.75
2017-04-10T04:55:19.781Z,1009.76
2017-04-10T04:55:45.862Z,1009.75
2017-04-10T04:56:11.968Z,1009.71
2017-04-10T04:56:38.053Z,1009.76
2017-04-10T04:57:04.235Z,1009.72
2017-04-10T04:57:30.341Z,1009.76
2017-04-10T04:57:56.422Z,1009.78
2017-04-10T04:58:22.552Z,1009.82
2017-04-10T04:58:48.634Z,1009.84
2017-04-10T04:59:14.718Z,1009.86
2017-04-10T04:59:40.823Z,1009.86
2017-04-10T05:00:06.905Z,1009.88
2017-04-10T05:00:32.987Z,1009.87
2017-04-10T05:00:59.070Z,1009.91
2017-04-10T05:01:25.177Z,1009.89
2017-04-10T05:01:51.358Z,1009.88
2017-04-10T05:02:17.445Z,1009.85
2017-04-10T05:02:43.548Z,1009.91
2017-04-10T05:03:09.629Z,1009.93
2017-04-10T05:03:35.812Z,1009.93
2017-04-10T05:04:01.896Z,1009.95
2017-04-10T05:04:27.976Z,1009.97
2017-04-10T05:04:54.059Z,1009.97
2017-04-10T05:05:20.147Z,1009.96
2017-04-10T05:05:46.231Z,1009.93
2017-04-10T05:06:12.338Z,1009.9
2017-04-10T05:06:38.424Z,1009.89
2017-04-10T05:07:04.501Z,1009.89
2017-04-10T05:07:30.622Z,1009.89
2017-04-10T05:07:56.668Z,1009.92
2017-04-10T05:08:22.749Z,1009.89
2017-04-10T05:08:48.854Z,1009.94
2017-04-10T05:09:14.938Z,1009.96
2017-04-10T05:09:41.022Z,1009.99
2017-04-10T05:10:07.109Z,1010.01
2017-04-10T05:10:33.212Z,1010.05
2017-04-10T05:10:59.317Z,1010.02
2017-04-10T05:11:25.398Z,1009.98
2017-04-10T05:11:51.480Z,1009.95
2017-04-10T05:12:17.564Z,1009.97
2017-04-10T05:12:43.646Z,1009.93
2017-04-10T05:13:09.753Z,1009.92
2017-04-10T05:13:35.839Z,1009.92
2017-04-10T05:14:01.920Z,1009.95
2017-04-10T05:14:28.002Z,1009.93
2017-04-10T05:14:54.085Z,1010.03
2017-04-10T05:15:20.170Z,1010.02
2017-04-10T05:15:46.252Z,1010.04
2017-04-10T05:16:12.337Z,1010.07
2017-04-10T05:16:38.421Z,1010
2017-04-10T05:17:04.502Z,1010.07